sensor_id;sensor_type;location;lat;lon;timestamp;temperature;humidity
72762;SHT30;60886;55.034;73.150;2023-02-18T00:02:37;-13.97;70.12
72762;SHT30;60886;55.034;73.150;2023-02-18T00:05:39;-14.00;70.38
72762;SHT30;60886;55.034;73.150;2023-02-18T00:08:41;-13.99;70.45
72762;SHT30;60886;55.034;73.150;2023-02-18T00:11:43;-13.96;70.65
72762;SHT30;60886;55.034;73.150;2023-02-18T00:14:44;-13.96;70.66
72762;SHT30;60886;55.034;73.150;2023-02-18T00:17:45;-13.94;70.66
72762;SHT30;60886;55.034;73.150;2023-02-18T00:20:47;-13.97;70.75
72762;SHT30;60886;55.034;73.150;2023-02-18T00:23:54;-13.91;70.84
72762;SHT30;60886;55.034;73.150;2023-02-18T00:26:55;-13.86;70.83
72762;SHT30;60886;55.034;73.150;2023-02-18T00:29:57;-13.83;70.77
72762;SHT30;60886;55.034;73.150;2023-02-18T00:33:00;-13.82;70.74
72762;SHT30;60886;55.034;73.150;2023-02-18T00:36:10;-13.76;70.71
72762;SHT30;60886;55.034;73.150;2023-02-18T00:39:18;-13.76;70.70
72762;SHT30;60886;55.034;73.150;2023-02-18T00:42:28;-13.67;70.56
72762;SHT30;60886;55.034;73.150;2023-02-18T00:45:30;-13.63;70.47
72762;SHT30;60886;55.034;73.150;2023-02-18T00:48:31;-13.65;70.53
72762;SHT30;60886;55.034;73.150;2023-02-18T00:51:38;-13.58;70.34
72762;SHT30;60886;55.034;73.150;2023-02-18T00:54:39;-13.56;70.22
72762;SHT30;60886;55.034;73.150;2023-02-18T00:57:41;-13.49;70.25
72762;SHT30;60886;55.034;73.150;2023-02-18T01:00:43;-13.48;70.16
72762;SHT30;60886;55.034;73.150;2023-02-18T01:03:44;-13.46;70.14
72762;SHT30;60886;55.034;73.150;2023-02-18T01:06:56;-13.42;70.01
72762;SHT30;60886;55.034;73.150;2023-02-18T01:09:57;-13.39;70.19
72762;SHT30;60886;55.034;73.150;2023-02-18T01:12:59;-13.44;69.96
72762;SHT30;60886;55.034;73.150;2023-02-18T01:16:06;-13.45;70.05
72762;SHT30;60886;55.034;73.150;2023-02-18T01:19:13;-13.45;70.16
72762;SHT30;60886;55.034;73.150;2023-02-18T01:22:14;-13.38;70.06
72762;SHT30;60886;55.034;73.150;2023-02-18T01:25:16;-13.44;70.15
72762;SHT30;60886;55.034;73.150;2023-02-18T01:28:18;-13.39;70.09
72762;SHT30;60886;55.034;73.150;2023-02-18T01:31:23;-13.42;70.17
72762;SHT30;60886;55.034;73.150;2023-02-18T01:34:25;-13.38;70.22
72762;SHT30;60886;55.034;73.150;2023-02-18T01:37:28;-13.36;70.20
72762;SHT30;60886;55.034;73.150;2023-02-18T01:40:36;-13.31;70.34
72762;SHT30;60886;55.034;73.150;2023-02-18T01:43:43;-13.32;70.26
72762;SHT30;60886;55.034;73.150;2023-02-18T01:46:45;-13.25;70.18
72762;SHT30;60886;55.034;73.150;2023-02-18T01:49:54;-13.24;70.27
72762;SHT30;60886;55.034;73.150;2023-02-18T01:52:55;-13.18;69.97
72762;SHT30;60886;55.034;73.150;2023-02-18T01:55:59;-13.21;70.12
72762;SHT30;60886;55.034;73.150;2023-02-18T01:59:27;-13.18;70.27
72762;SHT30;60886;55.034;73.150;2023-02-18T02:02:31;-13.14;69.87
72762;SHT30;60886;55.034;73.150;2023-02-18T02:05:35;-13.10;69.84
72762;SHT30;60886;55.034;73.150;2023-02-18T02:08:48;-13.07;69.79
72762;SHT30;60886;55.034;73.150;2023-02-18T02:12:01;-13.00;69.68
72762;SHT30;60886;55.034;73.150;2023-02-18T02:15:20;-12.91;69.35
72762;SHT30;60886;55.034;73.150;2023-02-18T02:37:21;-12.66;68.96
72762;SHT30;60886;55.034;73.150;2023-02-18T02:43:58;-12.70;68.51
72762;SHT30;60886;55.034;73.150;2023-02-18T02:51:05;-12.86;68.73
72762;SHT30;60886;55.034;73.150;2023-02-18T02:54:15;-12.96;68.69
72762;SHT30;60886;55.034;73.150;2023-02-18T03:11:11;-12.79;68.81
72762;SHT30;60886;55.034;73.150;2023-02-18T03:14:22;-12.67;69.01
72762;SHT30;60886;55.034;73.150;2023-02-18T03:17:31;-12.69;68.70
72762;SHT30;60886;55.034;73.150;2023-02-18T03:21:08;-12.60;68.80
72762;SHT30;60886;55.034;73.150;2023-02-18T03:24:28;-12.45;68.30
72762;SHT30;60886;55.034;73.150;2023-02-18T03:28:18;-12.45;68.21
72762;SHT30;60886;55.034;73.150;2023-02-18T03:31:22;-12.38;68.37
72762;SHT30;60886;55.034;73.150;2023-02-18T03:34:31;-12.28;68.47
72762;SHT30;60886;55.034;73.150;2023-02-18T03:37:38;-12.24;68.19
72762;SHT30;60886;55.034;73.150;2023-02-18T03:40:46;-12.17;67.91
72762;SHT30;60886;55.034;73.150;2023-02-18T03:44:00;-12.08;67.79
72762;SHT30;60886;55.034;73.150;2023-02-18T03:47:02;-12.05;67.80
72762;SHT30;60886;55.034;73.150;2023-02-18T03:50:04;-12.04;67.73
72762;SHT30;60886;55.034;73.150;2023-02-18T03:53:06;-11.88;67.77
72762;SHT30;60886;55.034;73.150;2023-02-18T03:56:08;-11.91;67.38
72762;SHT30;60886;55.034;73.150;2023-02-18T03:59:11;-11.87;67.42
72762;SHT30;60886;55.034;73.150;2023-02-18T04:02:12;-11.92;67.19
72762;SHT30;60886;55.034;73.150;2023-02-18T04:05:15;-11.88;67.59
72762;SHT30;60886;55.034;73.150;2023-02-18T04:08:17;-11.88;67.20
72762;SHT30;60886;55.034;73.150;2023-02-18T04:11:18;-11.87;67.43
72762;SHT30;60886;55.034;73.150;2023-02-18T04:14:20;-11.80;67.47
72762;SHT30;60886;55.034;73.150;2023-02-18T04:17:28;-11.71;67.37
72762;SHT30;60886;55.034;73.150;2023-02-18T04:20:30;-11.63;67.07
72762;SHT30;60886;55.034;73.150;2023-02-18T04:23:31;-11.57;66.86
72762;SHT30;60886;55.034;73.150;2023-02-18T04:26:34;-11.53;67.01
72762;SHT30;60886;55.034;73.150;2023-02-18T04:29:36;-11.42;66.62
72762;SHT30;60886;55.034;73.150;2023-02-18T04:32:38;-11.44;66.83
72762;SHT30;60886;55.034;73.150;2023-02-18T04:35:39;-11.33;66.79
72762;SHT30;60886;55.034;73.150;2023-02-18T04:38:53;-11.36;66.16
72762;SHT30;60886;55.034;73.150;2023-02-18T04:41:55;-11.23;66.49
72762;SHT30;60886;55.034;73.150;2023-02-18T04:44:57;-11.08;65.99
72762;SHT30;60886;55.034;73.150;2023-02-18T04:48:08;-11.02;65.96
72762;SHT30;60886;55.034;73.150;2023-02-18T04:51:09;-10.96;65.70
72762;SHT30;60886;55.034;73.150;2023-02-18T04:54:12;-10.86;65.50
72762;SHT30;60886;55.034;73.150;2023-02-18T04:57:29;-10.78;65.22
72762;SHT30;60886;55.034;73.150;2023-02-18T05:00:31;-10.69;65.19
72762;SHT30;60886;55.034;73.150;2023-02-18T05:03:47;-10.60;64.52
72762;SHT30;60886;55.034;73.150;2023-02-18T05:06:48;-10.48;64.48
72762;SHT30;60886;55.034;73.150;2023-02-18T05:09:51;-10.36;63.99
72762;SHT30;60886;55.034;73.150;2023-02-18T05:13:05;-10.30;64.05
72762;SHT30;60886;55.034;73.150;2023-02-18T05:16:08;-10.37;63.38
72762;SHT30;60886;55.034;73.150;2023-02-18T05:19:15;-10.33;63.97
72762;SHT30;60886;55.034;73.150;2023-02-18T05:22:28;-10.27;63.69
72762;SHT30;60886;55.034;73.150;2023-02-18T05:25:33;-10.41;63.66
72762;SHT30;60886;55.034;73.150;2023-02-18T05:28:44;-10.40;64.29
72762;SHT30;60886;55.034;73.150;2023-02-18T05:31:56;-10.27;64.10
72762;SHT30;60886;55.034;73.150;2023-02-18T05:34:58;-10.20;64.18
72762;SHT30;60886;55.034;73.150;2023-02-18T05:38:00;-10.20;63.16
72762;SHT30;60886;55.034;73.150;2023-02-18T05:41:04;-10.12;63.97
72762;SHT30;60886;55.034;73.150;2023-02-18T05:44:05;-10.00;63.31
72762;SHT30;60886;55.034;73.150;2023-02-18T05:47:28;-10.00;63.41
72762;SHT30;60886;55.034;73.150;2023-02-18T05:50:29;-9.90;63.22
72762;SHT30;60886;55.034;73.150;2023-02-18T05:53:31;-9.82;62.98
72762;SHT30;60886;55.034;73.150;2023-02-18T05:56:32;-9.85;63.11
72762;SHT30;60886;55.034;73.150;2023-02-18T05:59:44;-9.66;62.81
72762;SHT30;60886;55.034;73.150;2023-02-18T06:02:47;-9.54;62.43
72762;SHT30;60886;55.034;73.150;2023-02-18T06:05:51;-9.49;62.49
72762;SHT30;60886;55.034;73.150;2023-02-18T06:08:58;-9.31;62.12
72762;SHT30;60886;55.034;73.150;2023-02-18T06:11:59;-9.36;61.85
72762;SHT30;60886;55.034;73.150;2023-02-18T06:15:05;-9.44;62.12
72762;SHT30;60886;55.034;73.150;2023-02-18T06:18:06;-9.51;62.09
72762;SHT30;60886;55.034;73.150;2023-02-18T06:21:07;-9.59;62.34
72762;SHT30;60886;55.034;73.150;2023-02-18T06:24:19;-9.59;62.78
72762;SHT30;60886;55.034;73.150;2023-02-18T06:27:28;-9.60;63.01
72762;SHT30;60886;55.034;73.150;2023-02-18T06:30:29;-9.52;62.84
72762;SHT30;60886;55.034;73.150;2023-02-18T06:33:32;-9.38;62.62
72762;SHT30;60886;55.034;73.150;2023-02-18T06:36:33;-9.30;62.58
72762;SHT30;60886;55.034;73.150;2023-02-18T06:39:35;-9.11;62.22
72762;SHT30;60886;55.034;73.150;2023-02-18T06:42:41;-9.11;61.62
72762;SHT30;60886;55.034;73.150;2023-02-18T06:45:42;-9.04;61.68
72762;SHT30;60886;55.034;73.150;2023-02-18T06:48:44;-9.01;61.81
72762;SHT30;60886;55.034;73.150;2023-02-18T06:51:50;-8.89;61.59
72762;SHT30;60886;55.034;73.150;2023-02-18T06:55:02;-8.83;61.36
72762;SHT30;60886;55.034;73.150;2023-02-18T06:58:04;-8.76;61.28
72762;SHT30;60886;55.034;73.150;2023-02-18T07:01:05;-8.66;60.53
72762;SHT30;60886;55.034;73.150;2023-02-18T07:04:07;-8.42;60.81
72762;SHT30;60886;55.034;73.150;2023-02-18T07:07:09;-8.52;60.13
72762;SHT30;60886;55.034;73.150;2023-02-18T07:10:11;-8.50;60.87
72762;SHT30;60886;55.034;73.150;2023-02-18T07:13:13;-8.33;60.49
72762;SHT30;60886;55.034;73.150;2023-02-18T07:16:15;-8.36;60.16
72762;SHT30;60886;55.034;73.150;2023-02-18T07:19:26;-8.21;60.42
72762;SHT30;60886;55.034;73.150;2023-02-18T07:22:28;-8.22;59.73
72762;SHT30;60886;55.034;73.150;2023-02-18T07:25:39;-8.21;60.88
72762;SHT30;60886;55.034;73.150;2023-02-18T07:28:41;-8.02;60.10
72762;SHT30;60886;55.034;73.150;2023-02-18T07:31:45;-7.91;60.70
72762;SHT30;60886;55.034;73.150;2023-02-18T07:34:47;-7.66;59.62
72762;SHT30;60886;55.034;73.150;2023-02-18T07:37:49;-7.39;58.94
72762;SHT30;60886;55.034;73.150;2023-02-18T07:40:51;-7.34;58.65
72762;SHT30;60886;55.034;73.150;2023-02-18T07:43:55;-7.26;57.35
72762;SHT30;60886;55.034;73.150;2023-02-18T07:47:02;-7.08;57.25
72762;SHT30;60886;55.034;73.150;2023-02-18T07:50:05;-7.12;57.08
72762;SHT30;60886;55.034;73.150;2023-02-18T07:53:07;-7.16;57.55
72762;SHT30;60886;55.034;73.150;2023-02-18T07:56:12;-6.81;57.89
72762;SHT30;60886;55.034;73.150;2023-02-18T07:59:19;-6.75;57.24
72762;SHT30;60886;55.034;73.150;2023-02-18T08:02:30;-6.92;57.30
72762;SHT30;60886;55.034;73.150;2023-02-18T08:05:31;-6.85;57.39
72762;SHT30;60886;55.034;73.150;2023-02-18T08:08:33;-7.00;57.52
72762;SHT30;60886;55.034;73.150;2023-02-18T08:11:44;-7.02;58.40
72762;SHT30;60886;55.034;73.150;2023-02-18T08:14:45;-6.88;58.19
72762;SHT30;60886;55.034;73.150;2023-02-18T08:17:47;-6.82;58.14
72762;SHT30;60886;55.034;73.150;2023-02-18T08:20:50;-7.02;57.67
72762;SHT30;60886;55.034;73.150;2023-02-18T08:23:53;-7.10;57.87
72762;SHT30;60886;55.034;73.150;2023-02-18T08:26:54;-7.20;57.89
72762;SHT30;60886;55.034;73.150;2023-02-18T08:29:57;-7.29;58.46
72762;SHT30;60886;55.034;73.150;2023-02-18T08:32:58;-7.32;58.30
72762;SHT30;60886;55.034;73.150;2023-02-18T08:36:06;-7.36;58.49
72762;SHT30;60886;55.034;73.150;2023-02-18T08:39:08;-7.32;58.90
72762;SHT30;60886;55.034;73.150;2023-02-18T08:42:09;-7.42;59.00
72762;SHT30;60886;55.034;73.150;2023-02-18T08:45:10;-7.61;59.11
72762;SHT30;60886;55.034;73.150;2023-02-18T08:48:12;-7.73;59.59
72762;SHT30;60886;55.034;73.150;2023-02-18T08:51:21;-7.80;59.48
72762;SHT30;60886;55.034;73.150;2023-02-18T08:54:22;-7.87;59.98
72762;SHT30;60886;55.034;73.150;2023-02-18T08:57:28;-7.80;60.11
72762;SHT30;60886;55.034;73.150;2023-02-18T09:00:40;-7.73;60.29
72762;SHT30;60886;55.034;73.150;2023-02-18T09:03:43;-7.60;59.71
72762;SHT30;60886;55.034;73.150;2023-02-18T09:06:44;-7.47;59.67
72762;SHT30;60886;55.034;73.150;2023-02-18T09:09:46;-7.39;59.30
72762;SHT30;60886;55.034;73.150;2023-02-18T09:12:52;-7.23;58.78
72762;SHT30;60886;55.034;73.150;2023-02-18T09:15:59;-7.29;58.58
72762;SHT30;60886;55.034;73.150;2023-02-18T09:19:05;-7.33;59.38
72762;SHT30;60886;55.034;73.150;2023-02-18T09:22:07;-7.26;58.90
72762;SHT30;60886;55.034;73.150;2023-02-18T09:25:08;-7.34;58.62
72762;SHT30;60886;55.034;73.150;2023-02-18T09:28:20;-7.24;58.78
72762;SHT30;60886;55.034;73.150;2023-02-18T09:31:23;-7.44;58.84
72762;SHT30;60886;55.034;73.150;2023-02-18T09:34:26;-7.47;59.48
72762;SHT30;60886;55.034;73.150;2023-02-18T09:37:28;-7.54;59.55
72762;SHT30;60886;55.034;73.150;2023-02-18T09:40:31;-7.43;59.16
72762;SHT30;60886;55.034;73.150;2023-02-18T09:43:47;-7.33;58.96
72762;SHT30;60886;55.034;73.150;2023-02-18T09:49:53;-6.99;58.64
72762;SHT30;60886;55.034;73.150;2023-02-18T09:52:57;-7.06;59.95
72762;SHT30;60886;55.034;73.150;2023-02-18T09:56:05;-7.08;59.88
72762;SHT30;60886;55.034;73.150;2023-02-18T09:59:20;-7.29;60.77
72762;SHT30;60886;55.034;73.150;2023-02-18T10:02:28;-7.39;60.34
72762;SHT30;60886;55.034;73.150;2023-02-18T10:05:56;-7.50;60.90
72762;SHT30;60886;55.034;73.150;2023-02-18T10:09:05;-7.58;60.61
72762;SHT30;60886;55.034;73.150;2023-02-18T10:12:16;-7.70;60.79
72762;SHT30;60886;55.034;73.150;2023-02-18T10:15:22;-7.67;61.39
72762;SHT30;60886;55.034;73.150;2023-02-18T10:18:26;-7.60;61.20
72762;SHT30;60886;55.034;73.150;2023-02-18T10:21:33;-7.67;61.13
72762;SHT30;60886;55.034;73.150;2023-02-18T10:24:50;-7.84;61.25
72762;SHT30;60886;55.034;73.150;2023-02-18T10:27:52;-8.05;61.30
72762;SHT30;60886;55.034;73.150;2023-02-18T10:31:03;-8.06;62.18
72762;SHT30;60886;55.034;73.150;2023-02-18T10:34:15;-8.09;63.01
72762;SHT30;60886;55.034;73.150;2023-02-18T10:50:37;-8.28;62.38
72762;SHT30;60886;55.034;73.150;2023-02-18T10:53:41;-8.46;62.19
72762;SHT30;60886;55.034;73.150;2023-02-18T10:56:49;-8.74;63.21
72762;SHT30;60886;55.034;73.150;2023-02-18T11:06:33;-8.71;64.22
72762;SHT30;60886;55.034;73.150;2023-02-18T11:09:49;-8.80;64.01
72762;SHT30;60886;55.034;73.150;2023-02-18T11:13:02;-8.79;64.09
72762;SHT30;60886;55.034;73.150;2023-02-18T11:16:10;-8.93;64.60
72762;SHT30;60886;55.034;73.150;2023-02-18T11:19:37;-9.03;64.75
72762;SHT30;60886;55.034;73.150;2023-02-18T11:22:39;-9.08;65.06
72762;SHT30;60886;55.034;73.150;2023-02-18T11:26:04;-9.07;65.24
72762;SHT30;60886;55.034;73.150;2023-02-18T11:29:21;-9.14;65.74
72762;SHT30;60886;55.034;73.150;2023-02-18T11:32:29;-9.20;65.80
72762;SHT30;60886;55.034;73.150;2023-02-18T11:35:32;-9.28;65.97
72762;SHT30;60886;55.034;73.150;2023-02-18T11:38:55;-9.24;66.34
72762;SHT30;60886;55.034;73.150;2023-02-18T11:41:57;-9.39;65.98
72762;SHT30;60886;55.034;73.150;2023-02-18T11:45:00;-9.41;66.19
72762;SHT30;60886;55.034;73.150;2023-02-18T11:48:22;-9.41;66.74
72762;SHT30;60886;55.034;73.150;2023-02-18T11:51:34;-9.49;65.93
72762;SHT30;60886;55.034;73.150;2023-02-18T11:58:08;-9.63;67.07
72762;SHT30;60886;55.034;73.150;2023-02-18T12:01:31;-9.62;67.05
72762;SHT30;60886;55.034;73.150;2023-02-18T12:05:04;-9.66;67.11
72762;SHT30;60886;55.034;73.150;2023-02-18T12:08:17;-9.83;68.02
72762;SHT30;60886;55.034;73.150;2023-02-18T12:11:50;-10.06;69.29
72762;SHT30;60886;55.034;73.150;2023-02-18T12:14:54;-10.26;70.90
72762;SHT30;60886;55.034;73.150;2023-02-18T12:18:10;-10.53;72.29
72762;SHT30;60886;55.034;73.150;2023-02-18T12:25:19;-10.74;73.73
72762;SHT30;60886;55.034;73.150;2023-02-18T12:28:32;-10.69;74.33
72762;SHT30;60886;55.034;73.150;2023-02-18T12:31:58;-10.64;73.68
72762;SHT30;60886;55.034;73.150;2023-02-18T12:41:52;-10.55;73.24
72762;SHT30;60886;55.034;73.150;2023-02-18T12:49:14;-10.62;74.18
72762;SHT30;60886;55.034;73.150;2023-02-18T13:10:25;-10.72;74.37
72762;SHT30;60886;55.034;73.150;2023-02-18T13:13:38;-10.64;74.65
72762;SHT30;60886;55.034;73.150;2023-02-18T13:16:50;-10.53;74.17
72762;SHT30;60886;55.034;73.150;2023-02-18T13:20:05;-10.47;73.89
72762;SHT30;60886;55.034;73.150;2023-02-18T13:23:54;-10.33;73.67
72762;SHT30;60886;55.034;73.150;2023-02-18T13:30:47;-10.24;73.02
72762;SHT30;60886;55.034;73.150;2023-02-18T13:40:41;-10.24;73.16
72762;SHT30;60886;55.034;73.150;2023-02-18T13:43:43;-10.24;73.23
72762;SHT30;60886;55.034;73.150;2023-02-18T13:46:51;-10.29;72.94
72762;SHT30;60886;55.034;73.150;2023-02-18T13:49:58;-10.21;73.13
72762;SHT30;60886;55.034;73.150;2023-02-18T13:56:27;-10.33;72.34
72762;SHT30;60886;55.034;73.150;2023-02-18T13:59:40;-10.34;72.66
72762;SHT30;60886;55.034;73.150;2023-02-18T14:03:09;-10.23;72.21
72762;SHT30;60886;55.034;73.150;2023-02-18T14:06:33;-10.14;72.11
72762;SHT30;60886;55.034;73.150;2023-02-18T14:09:44;-10.19;71.89
72762;SHT30;60886;55.034;73.150;2023-02-18T14:16:12;-10.33;72.06
72762;SHT30;60886;55.034;73.150;2023-02-18T14:19:27;-10.41;72.06
72762;SHT30;60886;55.034;73.150;2023-02-18T14:22:51;-10.68;72.69
72762;SHT30;60886;55.034;73.150;2023-02-18T14:29:29;-10.54;72.75
72762;SHT30;60886;55.034;73.150;2023-02-18T14:33:01;-10.50;72.51
72762;SHT30;60886;55.034;73.150;2023-02-18T14:43:00;-10.44;71.90
72762;SHT30;60886;55.034;73.150;2023-02-18T14:46:23;-10.44;71.25
72762;SHT30;60886;55.034;73.150;2023-02-18T14:49:38;-10.48;71.01
72762;SHT30;60886;55.034;73.150;2023-02-18T14:56:03;-10.48;70.70
72762;SHT30;60886;55.034;73.150;2023-02-18T14:59:06;-10.60;71.08
72762;SHT30;60886;55.034;73.150;2023-02-18T15:02:28;-10.61;71.30
72762;SHT30;60886;55.034;73.150;2023-02-18T15:05:36;-10.62;71.16
72762;SHT30;60886;55.034;73.150;2023-02-18T15:08:38;-10.55;70.97
72762;SHT30;60886;55.034;73.150;2023-02-18T15:11:53;-10.68;70.95
72762;SHT30;60886;55.034;73.150;2023-02-18T15:15:01;-10.67;71.26
72762;SHT30;60886;55.034;73.150;2023-02-18T15:18:26;-10.57;71.03
72762;SHT30;60886;55.034;73.150;2023-02-18T15:21:40;-10.65;70.70
72762;SHT30;60886;55.034;73.150;2023-02-18T15:24:43;-10.71;70.93
72762;SHT30;60886;55.034;73.150;2023-02-18T15:27:45;-10.68;71.06
72762;SHT30;60886;55.034;73.150;2023-02-18T15:31:02;-10.64;70.96
72762;SHT30;60886;55.034;73.150;2023-02-18T15:34:37;-10.64;71.30
72762;SHT30;60886;55.034;73.150;2023-02-18T15:37:43;-10.69;71.00
72762;SHT30;60886;55.034;73.150;2023-02-18T15:40:51;-10.69;71.15
72762;SHT30;60886;55.034;73.150;2023-02-18T15:43:59;-10.65;71.23
72762;SHT30;60886;55.034;73.150;2023-02-18T15:47:07;-10.71;71.27
72762;SHT30;60886;55.034;73.150;2023-02-18T15:50:20;-10.98;71.10
72762;SHT30;60886;55.034;73.150;2023-02-18T15:53:22;-11.02;71.78
72762;SHT30;60886;55.034;73.150;2023-02-18T15:56:43;-10.91;72.05
72762;SHT30;60886;55.034;73.150;2023-02-18T16:00:11;-10.85;71.61
72762;SHT30;60886;55.034;73.150;2023-02-18T16:03:20;-10.86;71.35
72762;SHT30;60886;55.034;73.150;2023-02-18T16:06:30;-11.01;71.60
72762;SHT30;60886;55.034;73.150;2023-02-18T16:09:41;-11.04;72.08
72762;SHT30;60886;55.034;73.150;2023-02-18T16:12:54;-11.01;71.95
72762;SHT30;60886;55.034;73.150;2023-02-18T16:16:00;-10.98;71.83
72762;SHT30;60886;55.034;73.150;2023-02-18T16:19:03;-11.02;71.92
72762;SHT30;60886;55.034;73.150;2023-02-18T16:25:46;-11.12;71.92
72762;SHT30;60886;55.034;73.150;2023-02-18T16:29:14;-11.06;71.94
72762;SHT30;60886;55.034;73.150;2023-02-18T16:32:16;-11.05;71.95
72762;SHT30;60886;55.034;73.150;2023-02-18T16:35:21;-11.02;72.10
72762;SHT30;60886;55.034;73.150;2023-02-18T16:38:29;-11.01;71.94
72762;SHT30;60886;55.034;73.150;2023-02-18T16:41:40;-11.06;71.79
72762;SHT30;60886;55.034;73.150;2023-02-18T16:44:42;-11.05;71.97
72762;SHT30;60886;55.034;73.150;2023-02-18T16:47:54;-11.01;71.46
72762;SHT30;60886;55.034;73.150;2023-02-18T16:51:00;-11.01;71.44
72762;SHT30;60886;55.034;73.150;2023-02-18T16:54:02;-11.01;71.27
72762;SHT30;60886;55.034;73.150;2023-02-18T16:57:04;-10.99;71.22
72762;SHT30;60886;55.034;73.150;2023-02-18T17:00:06;-11.06;70.92
72762;SHT30;60886;55.034;73.150;2023-02-18T17:03:09;-11.16;70.93
72762;SHT30;60886;55.034;73.150;2023-02-18T17:06:21;-11.26;71.48
72762;SHT30;60886;55.034;73.150;2023-02-18T17:09:28;-11.23;70.98
72762;SHT30;60886;55.034;73.150;2023-02-18T17:12:29;-11.18;71.21
72762;SHT30;60886;55.034;73.150;2023-02-18T17:15:34;-11.25;70.67
72762;SHT30;60886;55.034;73.150;2023-02-18T17:18:36;-11.37;70.79
72762;SHT30;60886;55.034;73.150;2023-02-18T17:21:38;-11.44;71.35
72762;SHT30;60886;55.034;73.150;2023-02-18T17:24:39;-11.44;71.21
72762;SHT30;60886;55.034;73.150;2023-02-18T17:27:41;-11.47;71.16
72762;SHT30;60886;55.034;73.150;2023-02-18T17:30:55;-11.51;71.08
72762;SHT30;60886;55.034;73.150;2023-02-18T17:34:02;-11.61;71.28
72762;SHT30;60886;55.034;73.150;2023-02-18T17:37:15;-11.85;71.65
72762;SHT30;60886;55.034;73.150;2023-02-18T17:40:19;-11.78;71.71
72762;SHT30;60886;55.034;73.150;2023-02-18T17:43:21;-11.84;71.31
72762;SHT30;60886;55.034;73.150;2023-02-18T17:46:25;-11.85;71.74
72762;SHT30;60886;55.034;73.150;2023-02-18T17:49:37;-11.98;71.45
72762;SHT30;60886;55.034;73.150;2023-02-18T17:52:44;-11.98;71.57
72762;SHT30;60886;55.034;73.150;2023-02-18T17:55:51;-12.07;71.65
72762;SHT30;60886;55.034;73.150;2023-02-18T17:58:52;-12.14;71.58
72762;SHT30;60886;55.034;73.150;2023-02-18T18:01:54;-12.24;71.68
72762;SHT30;60886;55.034;73.150;2023-02-18T18:04:55;-12.44;71.90
72762;SHT30;60886;55.034;73.150;2023-02-18T18:08:07;-12.52;72.42
72762;SHT30;60886;55.034;73.150;2023-02-18T18:11:18;-12.66;72.91
72762;SHT30;60886;55.034;73.150;2023-02-18T18:14:19;-12.62;72.91
72762;SHT30;60886;55.034;73.150;2023-02-18T18:17:32;-12.67;73.27
72762;SHT30;60886;55.034;73.150;2023-02-18T18:20:46;-12.79;73.09
72762;SHT30;60886;55.034;73.150;2023-02-18T18:23:49;-12.94;73.50
72762;SHT30;60886;55.034;73.150;2023-02-18T18:26:51;-13.00;73.90
72762;SHT30;60886;55.034;73.150;2023-02-18T18:29:57;-13.07;74.06
72762;SHT30;60886;55.034;73.150;2023-02-18T18:33:00;-13.18;74.24
72762;SHT30;60886;55.034;73.150;2023-02-18T18:36:02;-13.17;74.39
72762;SHT30;60886;55.034;73.150;2023-02-18T18:39:04;-13.08;74.35
72762;SHT30;60886;55.034;73.150;2023-02-18T18:42:06;-13.07;74.16
72762;SHT30;60886;55.034;73.150;2023-02-18T18:45:21;-13.08;73.62
72762;SHT30;60886;55.034;73.150;2023-02-18T18:48:23;-13.11;73.69
72762;SHT30;60886;55.034;73.150;2023-02-18T18:51:27;-13.17;73.76
72762;SHT30;60886;55.034;73.150;2023-02-18T18:54:32;-13.15;74.06
72762;SHT30;60886;55.034;73.150;2023-02-18T18:57:33;-13.27;74.18
72762;SHT30;60886;55.034;73.150;2023-02-18T19:00:41;-13.39;74.61
72762;SHT30;60886;55.034;73.150;2023-02-18T19:03:45;-13.34;74.86
72762;SHT30;60886;55.034;73.150;2023-02-18T19:06:48;-13.39;74.51
72762;SHT30;60886;55.034;73.150;2023-02-18T19:09:52;-13.46;75.19
72762;SHT30;60886;55.034;73.150;2023-02-18T19:13:03;-13.44;75.32
72762;SHT30;60886;55.034;73.150;2023-02-18T19:16:33;-13.48;74.99
72762;SHT30;60886;55.034;73.150;2023-02-18T19:19:35;-13.46;75.19
72762;SHT30;60886;55.034;73.150;2023-02-18T19:22:37;-13.58;75.04
72762;SHT30;60886;55.034;73.150;2023-02-18T19:25:40;-13.58;75.21
72762;SHT30;60886;55.034;73.150;2023-02-18T19:28:51;-13.61;75.29
72762;SHT30;60886;55.034;73.150;2023-02-18T19:31:57;-13.61;75.30
72762;SHT30;60886;55.034;73.150;2023-02-18T19:35:03;-13.62;75.04
72762;SHT30;60886;55.034;73.150;2023-02-18T19:38:11;-13.67;74.97
72762;SHT30;60886;55.034;73.150;2023-02-18T19:41:14;-13.67;75.15
72762;SHT30;60886;55.034;73.150;2023-02-18T19:44:17;-13.67;74.74
72762;SHT30;60886;55.034;73.150;2023-02-18T19:47:27;-13.69;74.71
72762;SHT30;60886;55.034;73.150;2023-02-18T19:50:29;-13.65;74.59
72762;SHT30;60886;55.034;73.150;2023-02-18T19:53:39;-13.70;74.27
72762;SHT30;60886;55.034;73.150;2023-02-18T19:56:46;-13.72;74.73
72762;SHT30;60886;55.034;73.150;2023-02-18T19:59:47;-13.62;74.58
72762;SHT30;60886;55.034;73.150;2023-02-18T20:02:49;-13.82;74.34
72762;SHT30;60886;55.034;73.150;2023-02-18T20:05:56;-13.82;74.81
72762;SHT30;60886;55.034;73.150;2023-02-18T20:08:57;-13.90;75.03
72762;SHT30;60886;55.034;73.150;2023-02-18T20:11:58;-13.73;75.37
72762;SHT30;60886;55.034;73.150;2023-02-18T20:15:01;-13.61;75.06
72762;SHT30;60886;55.034;73.150;2023-02-18T20:18:05;-13.58;74.60
72762;SHT30;60886;55.034;73.150;2023-02-18T20:21:09;-13.58;74.36
72762;SHT30;60886;55.034;73.150;2023-02-18T20:24:17;-13.67;74.68
72762;SHT30;60886;55.034;73.150;2023-02-18T20:27:28;-13.72;75.21
72762;SHT30;60886;55.034;73.150;2023-02-18T20:30:29;-13.75;75.29
72762;SHT30;60886;55.034;73.150;2023-02-18T20:33:31;-13.66;74.86
72762;SHT30;60886;55.034;73.150;2023-02-18T20:36:33;-13.76;74.64
72762;SHT30;60886;55.034;73.150;2023-02-18T20:39:34;-13.83;74.30
72762;SHT30;60886;55.034;73.150;2023-02-18T20:42:35;-13.93;74.58
72762;SHT30;60886;55.034;73.150;2023-02-18T20:45:39;-13.96;74.31
72762;SHT30;60886;55.034;73.150;2023-02-18T20:48:41;-14.05;74.39
72762;SHT30;60886;55.034;73.150;2023-02-18T20:51:53;-14.12;74.33
72762;SHT30;60886;55.034;73.150;2023-02-18T20:55:05;-14.14;74.81
72762;SHT30;60886;55.034;73.150;2023-02-18T20:58:06;-14.16;74.84
72762;SHT30;60886;55.034;73.150;2023-02-18T21:01:16;-14.17;74.65
72762;SHT30;60886;55.034;73.150;2023-02-18T21:04:20;-14.16;74.39
72762;SHT30;60886;55.034;73.150;2023-02-18T21:07:27;-14.17;74.62
72762;SHT30;60886;55.034;73.150;2023-02-18T21:10:29;-14.16;74.26
72762;SHT30;60886;55.034;73.150;2023-02-18T21:13:31;-14.16;74.31
72762;SHT30;60886;55.034;73.150;2023-02-18T21:16:34;-14.27;73.97
72762;SHT30;60886;55.034;73.150;2023-02-18T21:19:43;-14.36;74.41
72762;SHT30;60886;55.034;73.150;2023-02-18T21:22:56;-14.42;74.76
72762;SHT30;60886;55.034;73.150;2023-02-18T21:26:07;-14.58;74.88